Latest Weather Observations for Richmond

IDQ60801

Issued at 5:03 am EST Sunday 14 April 2024 (issued every 10 minutes, with the page automatically refreshed every 10 minutes)

About weather observations | Map of weather stations | Latest weather observations for QLD | Other Formats
Station Details ID: 030161 Name: RICHMOND AIRPORT Lat: -20.70 Lon: 143.11 Height: 206.3 m
Data from the previous 72 hours. | See also: Recent months at Richmond
Date/Time
EST
Temp
°C
App
Temp
°C
Dew
Point
°C
Rel
Hum
%
Delta-T
°C
Wind Press
QNH
hPa
Press
MSL
hPa
Rain since
9am
mm
Dir  Spd
km/h
Gust
km/h
Spd
kts
Gust
kts
14/05:00am 18.4 18.7 15.1 81 1.9 ENE 7 9 4 5 1016.2 1015.0 0.0
14/04:30am 17.8 17.8 14.3 80 2.0 E 7 9 4 5 1016.2 1015.0 0.0
14/04:00am 17.3 17.1 13.6 79 2.1 ESE 7 9 4 5 1016.4 1015.2 0.0
14/03:30am 19.2 19.4 14.7 75 2.6 E 7 9 4 5 1016.3 1015.1 0.0
14/03:00am 20.3 20.0 14.4 69 3.5 E 9 11 5 6 1016.2 1015.0 0.0
14/02:30am 20.1 19.8 14.5 70 3.3 ENE 9 11 5 6 1016.2 1015.0 0.0
14/02:15am 19.9 19.6 14.3 70 3.3 ENE 9 11 5 6 1016.2 1015.0 0.0
14/02:00am 19.8 19.9 14.4 71 3.2 ENE 7 9 4 5 1016.3 1015.1 0.0
14/01:54am 19.7 19.7 14.3 71 3.2 ENE 7 11 4 6 1016.3 1015.1 0.0
14/01:30am 20.7 20.3 14.1 66 3.9 ENE 9 13 5 7 1016.4 1015.2 0.0
14/01:00am 20.9 20.0 13.8 64 4.1 ENE 11 13 6 7 1016.6 1015.4 0.0
14/12:30am 21.5 20.3 13.9 62 4.4 E 13 13 7 7 1016.8 1015.6 0.0
14/12:00am 21.8 20.6 13.9 60 4.6 E 13 17 7 9 1017.0 1015.9 0.0
 
Date/Time
EST
Temp
°C
App
Temp
°C
Dew
Point
°C
Rel
Hum
%
Delta-T
°C
Wind Press
QNH
hPa
Press
MSL
hPa
Rain since
9am
mm
Dir  Spd
km/h
Gust
km/h
Spd
kts
Gust
kts
13/11:30pm 22.7 21.0 13.7 56 5.3 E 15 17 8 9 1016.8 1015.6 0.0
13/11:00pm 23.1 21.0 13.6 55 5.6 ESE 17 20 9 11 1016.9 1015.8 0.0
13/10:30pm 23.8 21.2 13.1 51 6.2 ESE 19 24 10 13 1017.0 1015.9 0.0
13/10:00pm 23.7 20.9 12.7 50 6.4 ESE 19 20 10 11 1017.1 1016.0 0.0
13/09:30pm 23.9 21.5 12.5 49 6.6 ESE 17 20 9 11 1016.9 1015.8 0.0
13/09:00pm 23.4 21.6 13.3 53 5.9 ESE 15 17 8 9 1016.6 1015.4 0.0
13/08:30pm 23.7 21.5 13.3 52 6.1 ESE 17 19 9 10 1016.3 1015.1 0.0
13/08:00pm 23.8 21.6 13.4 52 6.1 ESE 17 19 9 10 1015.9 1014.7 0.0
13/07:30pm 24.1 21.9 13.3 51 6.3 SE 17 19 9 10 1015.4 1014.2 0.0
13/07:00pm 24.8 22.6 13.4 49 6.7 SE 17 17 9 9 1015.0 1013.8 0.0
13/06:30pm 26.7 25.1 12.7 42 8.2 SE 13 17 7 9 1014.8 1013.6 0.0
13/06:00pm 28.3 27.2 13.0 39 9.1 ESE 11 13 6 7 1014.6 1013.4 0.0
13/05:30pm 30.8 29.8 12.2 32 11.0 ESE 9 13 5 7 1014.2 1013.1 0.0
13/05:00pm 31.9 30.7 11.7 29 11.9 ENE 9 13 5 7 1014.0 1012.9 0.0
13/04:30pm 32.2 29.9 10.3 26 12.7 ENE 13 19 7 10 1013.8 1012.7 0.0
13/04:00pm 32.5 30.5 11.6 28 12.4 ESE 13 20 7 11 1013.7 1012.6 0.0
13/03:30pm 32.7 30.8 11.8 28 12.4 E 13 20 7 11 1013.6 1012.5 0.0
13/03:00pm 32.9 30.5 12.5 29 12.2 ESE 17 26 9 14 1013.6 1012.5 0.0
13/02:30pm 32.5 30.5 11.6 28 12.4 E 13 22 7 12 1014.0 1012.9 0.0
13/02:00pm 33.0 31.0 12.6 29 12.3 E 15 24 8 13 1014.2 1013.1 0.0
13/01:30pm 32.5 30.5 12.7 30 11.9 ENE 15 26 8 14 1014.8 1013.6 0.0
13/01:00pm 32.5 30.2 14.1 32 11.3 ESE 19 26 10 14 1015.1 1013.9 0.0
13/12:30pm 31.6 29.0 13.8 33 10.8 ESE 20 32 11 17 1015.5 1014.3 0.0
13/12:00pm 31.4 29.4 15.0 37 10.2 ENE 19 28 10 15 1016.0 1014.8 0.0
13/11:53am 30.7 28.0 13.5 35 10.4 E 20 32 11 17 1016.1 1014.9 0.0
13/11:37am 30.9 28.2 14.5 37 10.1 E 22 30 12 16 1016.4 1015.2 0.0
13/11:30am 30.5 27.9 13.7 35 10.2 ENE 20 30 11 16 1016.5 1015.3 0.0
13/11:00am 29.9 27.4 14.0 37 9.6 ENE 20 32 11 17 1016.8 1015.6 0.0
13/10:30am 29.1 26.7 14.5 41 8.9 ENE 20 30 11 16 1017.2 1016.1 0.0
13/10:00am 28.6 27.1 15.2 44 8.2 NE 17 24 9 13 1017.2 1016.1 0.0
13/09:30am 27.0 25.5 15.4 49 7.1 NE 17 24 9 13 1017.1 1016.0 0.0
13/09:00am 24.6 23.0 15.0 55 5.8 ENE 17 24 9 13 1017.0 1015.9 0.0
13/08:30am 22.5 21.2 14.9 62 4.5 ENE 15 20 8 11 1016.8 1015.6 0.0
13/08:00am 19.8 18.1 12.6 63 4.1 E 13 17 7 9 1016.7 1015.5 0.0
13/07:30am 17.2 15.5 11.2 68 3.3 ESE 11 15 6 8 1016.6 1015.4 0.0
13/07:00am 14.6 13.1 10.4 76 2.2 ESE 9 13 5 7 1016.2 1015.0 0.0
13/06:30am 12.9 10.8 9.7 81 1.7 SE 11 13 6 7 1015.8 1014.6 0.0
13/06:00am 13.2 10.6 9.5 78 1.9 ESE 13 15 7 8 1015.4 1014.2 0.0
13/05:30am 12.1 9.4 9.1 82 1.5 SE 13 15 7 8 1015.2 1014.0 0.0
13/05:14am 12.1 9.8 9.1 82 1.5 SSE 11 15 6 8 1015.0 1013.8 0.0
13/05:00am 13.0 10.8 9.4 79 1.8 ESE 11 13 6 7 1014.9 1013.7 0.0
13/04:55am 13.3 11.1 9.5 78 2.0 ESE 11 13 6 7 1014.8 1013.6 0.0
13/04:30am 13.4 10.8 9.3 76 2.1 SE 13 15 7 8 1014.6 1013.4 0.0
13/04:00am 13.5 12.1 9.4 76 2.1 ESE 7 9 4 5 1014.5 1013.3 0.0
13/03:30am 15.1 12.8 9.0 67 3.1 E 11 13 6 7 1014.7 1013.5 0.0
13/03:00am 14.2 12.0 9.2 72 2.6 ESE 11 11 6 6 1014.9 1013.7 0.0
13/02:30am 14.6 13.1 9.2 70 2.8 E 7 9 4 5 1015.1 1013.9 0.0
13/02:00am 14.6 12.7 9.0 69 2.9 ESE 9 9 5 5 1015.2 1014.0 0.0
13/01:30am 14.1 12.1 8.7 70 2.8 SE 9 11 5 6 1015.5 1014.3 0.0
13/01:00am 14.2 11.7 8.4 68 2.9 SE 11 13 6 7 1015.6 1014.4 0.0
13/12:30am 14.8 12.9 9.0 68 3.0 ESE 9 11 5 6 1015.7 1014.5 0.0
13/12:00am 15.4 13.4 8.6 64 3.5 SSE 9 9 5 5 1015.8 1014.6 0.0
 
Date/Time
EST
Temp
°C
App
Temp
°C
Dew
Point
°C
Rel
Hum
%
Delta-T
°C
Wind Press
QNH
hPa
Press
MSL
hPa
Rain since
9am
mm
Dir  Spd
km/h
Gust
km/h
Spd
kts
Gust
kts
12/11:30pm 18.4 15.4 7.5 49 5.6 E 13 15 7 8 1015.9 1014.7 0.0
12/11:00pm 18.5 15.2 7.9 50 5.5 E 15 17 8 9 1015.9 1014.7 0.0
12/10:30pm 19.2 15.7 7.3 46 6.1 ESE 15 19 8 10 1015.8 1014.6 0.0
12/10:00pm 20.2 16.6 6.9 42 6.8 ESE 15 20 8 11 1015.7 1014.5 0.0
12/09:30pm 20.0 16.1 7.1 43 6.6 ESE 17 19 9 10 1015.6 1014.4 0.0
12/09:00pm 20.5 16.2 7.2 42 6.9 ESE 19 20 10 11 1015.5 1014.3 0.0
12/08:30pm 21.7 17.4 6.8 38 7.7 ESE 19 20 10 11 1015.2 1014.0 0.0
12/08:00pm 22.4 18.2 7.4 38 7.9 ESE 19 20 10 11 1014.8 1013.6 0.0
12/07:30pm 22.2 18.1 8.0 40 7.5 SE 19 20 10 11 1014.5 1013.3 0.0
12/07:00pm 22.8 19.5 8.1 39 7.8 SE 15 17 8 9 1014.0 1012.9 0.0
12/06:30pm 24.5 21.8 8.9 37 8.5 SE 13 15 7 8 1013.6 1012.5 0.0
12/06:00pm 27.2 24.4 8.6 31 10.2 ESE 13 15 7 8 1013.4 1012.3 0.0
12/05:30pm 29.6 26.3 8.1 26 11.9 ESE 15 19 8 10 1013.1 1012.0 0.0
12/05:00pm 30.9 27.0 5.3 20 13.6 E 15 24 8 13 1012.8 1011.7 0.0
12/04:30pm 31.4 26.4 3.4 17 14.4 ESE 19 24 10 13 1012.7 1011.6 0.0
12/04:00pm 31.4 26.7 3.4 17 14.4 ESE 17 22 9 12 1012.6 1011.5 0.0
12/03:30pm 31.7 28.2 5.3 19 14.1 ESE 13 22 7 12 1012.6 1011.5 0.0
12/03:00pm 31.5 28.3 5.1 19 14.0 SSE 11 22 6 12 1012.8 1011.7 0.0
12/02:30pm 31.3 27.7 4.9 19 13.9 SE 13 22 7 12 1013.2 1012.1 0.0
12/02:00pm 31.2 26.8 4.9 19 13.9 SE 17 24 9 13 1013.4 1012.3 0.0
12/01:30pm 30.9 26.8 6.0 21 13.4 SE 17 24 9 13 1013.8 1012.7 0.0
12/01:00pm 30.6 26.4 5.8 21 13.2 SE 17 26 9 14 1014.0 1012.9 0.0
12/12:30pm 30.9 26.8 6.0 21 13.4 E 17 39 9 21 1014.6 1013.4 0.0
12/12:00pm 30.0 25.9 6.0 22 12.8 E 17 28 9 15 1015.3 1014.1 0.0
12/11:30am 29.5 25.8 6.2 23 12.4 E 15 24 8 13 1015.9 1014.7 0.0
12/11:00am 28.0 24.8 6.7 26 11.4 ENE 13 17 7 9 1016.5 1015.3 0.0
12/10:30am 26.5 24.3 8.0 31 10.0 E 9 13 5 7 1016.7 1015.5 0.0
12/10:00am 24.5 21.9 7.6 34 9.0 E 11 15 6 8 1016.9 1015.8 0.0
12/09:30am 22.7 20.2 8.4 40 7.6 ESE 11 15 6 8 1016.7 1015.5 0.0
12/09:00am 20.7 17.3 7.7 43 6.8 ESE 15 19 8 10 1016.5 1015.3 0.0
12/08:30am 18.7 15.2 7.2 47 5.9 ESE 15 20 8 11 1016.3 1015.1 0.0
12/08:00am 16.9 12.6 7.0 52 5.0 ESE 19 24 10 13 1016.1 1014.9 0.0
12/07:30am 15.7 11.3 6.4 54 4.6 ESE 19 26 10 14 1015.9 1014.7 0.0
12/07:00am 14.6 10.1 5.9 56 4.2 ESE 19 22 10 12 1015.4 1014.2 0.0
12/06:30am 14.5 9.7 5.8 56 4.2 ESE 20 28 11 15 1015.2 1014.0 0.0
12/06:00am 13.7 9.9 5.8 59 3.8 ESE 15 19 8 10 1015.0 1013.8 0.0
12/05:30am 14.1 10.2 5.5 56 4.1 E 15 20 8 11 1014.7 1013.5 0.0
12/05:00am 14.5 10.3 5.6 55 4.3 ESE 17 20 9 11 1014.6 1013.4 0.0
12/04:30am 14.9 10.6 5.4 53 4.5 ESE 17 20 9 11 1014.5 1013.3 0.0
12/04:00am 15.3 11.1 5.5 52 4.7 ESE 17 22 9 12 1014.6 1013.4 0.0
12/03:30am 15.1 11.3 5.6 53 4.6 ESE 15 19 8 10 1014.8 1013.6 0.0
12/03:05am 14.8 10.6 5.6 54 4.4 ESE 17 19 9 10 1014.9 1013.7 0.0
12/03:00am 14.6 10.7 5.4 54 4.4 ESE 15 17 8 9 1015.0 1013.8 0.0
12/02:46am 15.0 11.4 5.2 52 4.7 E 13 15 7 8 1015.1 1013.9 0.0
12/02:30am 15.3 11.7 5.0 50 4.9 E 13 17 7 9 1015.2 1014.0 0.0
12/02:00am 16.9 12.1 4.9 45 5.8 ESE 19 24 10 13 1015.4 1014.2 0.0
12/01:30am 17.4 12.4 4.7 43 6.1 ESE 20 26 11 14 1015.6 1014.4 0.0
12/01:00am 17.7 12.7 4.6 42 6.3 SE 20 24 11 13 1015.8 1014.6 0.0
12/12:30am 17.3 13.0 5.3 45 5.8 SE 17 22 9 12 1015.9 1014.7 0.0
12/12:00am 17.5 13.6 5.4 45 5.9 SE 15 19 8 10 1016.1 1014.9 0.0
 
Date/Time
EST
Temp
°C
App
Temp
°C
Dew
Point
°C
Rel
Hum
%
Delta-T
°C
Wind Press
QNH
hPa
Press
MSL
hPa
Rain since
9am
mm
Dir  Spd
km/h
Gust
km/h
Spd
kts
Gust
kts
11/11:30pm 18.2 13.6 5.4 43 6.3 SE 19 22 10 12 1016.1 1014.9 0.0
11/11:00pm 18.6 14.4 5.5 42 6.4 SE 17 24 9 13 1016.0 1014.8 0.0
11/10:30pm 18.6 14.0 5.8 43 6.3 SE 19 24 10 13 1016.1 1014.9 0.0
11/10:00pm 18.3 14.2 6.2 45 6.0 SE 17 20 9 11 1016.3 1015.1 0.0
11/09:30pm 18.6 14.5 6.1 44 6.2 SSE 17 19 9 10 1016.3 1015.1 0.0
11/09:00pm 20.1 15.7 6.5 41 6.9 SSE 19 24 10 13 1016.1 1014.9 0.0
11/08:30pm 19.4 15.0 6.5 43 6.5 SSE 19 20 10 11 1015.8 1014.6 0.0
11/08:00pm 18.8 14.9 7.3 47 5.9 SSE 17 20 9 11 1015.5 1014.3 0.0
11/07:30pm 19.7 15.4 7.1 44 6.5 SSE 19 20 10 11 1015.1 1013.9 0.0
11/07:00pm 20.7 16.6 6.3 39 7.3 SSE 17 20 9 11 1014.8 1013.6 0.0
11/06:30pm 24.0 20.4 6.7 33 9.0 SE 15 17 8 9 1014.3 1013.2 0.0
11/06:00pm 26.6 23.3 6.6 28 10.6 ESE 13 19 7 10 1014.1 1013.0 0.0
11/05:30pm 28.8 24.7 6.2 24 12.0 ESE 17 24 9 13 1013.8 1012.7 0.0
11/05:00pm 30.1 26.5 6.7 23 12.6 ESE 15 19 8 10 1013.7 1012.6 0.0
11/04:30pm 30.8 26.3 6.0 21 13.3 ESE 19 26 10 14 1013.5 1012.4 0.0
11/04:00pm 30.8 25.9 5.3 20 13.5 SE 20 30 11 16 1013.3 1012.2 0.0
11/03:30pm 31.2 26.6 6.3 21 13.4 SE 20 32 11 17 1013.1 1012.0 0.0
11/03:00pm 31.5 27.8 6.5 21 13.6 ESE 15 20 8 11 1013.3 1012.2 0.0
11/02:30pm 31.5 27.7 9.1 25 12.7 ESE 19 30 10 16 1013.5 1012.4 0.0
11/02:15pm 30.6 27.2 7.7 24 12.6 ESE 15 24 8 13 1013.8 1012.7 0.0
11/02:03pm 30.0 26.3 7.8 25 12.2 ESE 17 28 9 15 1014.0 1012.9 0.0
11/02:00pm 30.7 26.7 8.4 25 12.4 E 19 28 10 15 1014.1 1013.0 0.0
11/01:30pm 30.2 26.7 8.6 26 12.1 SE 17 24 9 13 1014.3 1013.2 0.0
11/01:00pm 29.7 26.2 7.0 24 12.3 ESE 15 20 8 11 1014.7 1013.5 0.0
11/12:30pm 29.4 26.3 7.3 25 12.0 ESE 13 20 7 11 1015.0 1013.8 0.0
11/12:00pm 28.8 25.9 9.5 30 10.8 E 15 19 8 10 1015.4 1014.2 0.0
11/11:30am 27.6 23.9 8.0 29 10.7 E 17 24 9 13 1015.9 1014.7 0.0
11/11:00am 25.9 21.5 7.5 31 9.8 E 20 30 11 16 1016.1 1014.9 0.0
11/10:30am 25.8 21.7 7.9 32 9.6 E 19 30 10 16 1016.8 1015.6 0.0
11/10:00am 23.7 19.2 6.9 34 8.8 E 20 26 11 14 1016.9 1015.8 0.0
11/09:30am 21.9 16.6 6.6 37 7.9 E 24 32 13 17 1016.7 1015.5 0.0
11/09:00am 20.7 16.1 6.6 40 7.2 ESE 20 30 11 16 1016.6 1015.4 0.0
11/08:30am 18.6 14.1 7.1 47 5.8 ESE 20 28 11 15 1016.5 1015.3 0.0
11/08:00am 17.1 13.1 6.6 50 5.2 ESE 17 22 9 12 1016.2 1015.0 0.0
11/07:30am 15.0 10.9 6.3 56 4.2 ESE 17 22 9 12 1016.0 1014.8 0.0
11/07:00am 12.5 8.8 6.1 65 3.1 ESE 15 19 8 10 1015.9 1014.7 0.0
11/06:30am 12.5 8.7 5.9 64 3.1 ESE 15 19 8 10 1015.5 1014.3 0.0
11/06:00am 13.2 9.4 5.9 61 3.5 ESE 15 20 8 11 1015.4 1014.2 0.0
11/05:30am 13.3 9.5 5.7 60 3.6 ESE 15 22 8 12 1015.3 1014.1 0.0

Other formats

Comma delimited format used in spreadsheet applications
http://www.bom.gov.au/fwo/IDQ60801/IDQ60801.94341.axf

JavaScript Object Notation format (JSON) in row-major order
http://www.bom.gov.au/fwo/IDQ60801/IDQ60801.94341.json

Data quality

Most of these data are generated automatically and are frequently updated. Quality checks on data are not normally performed. It is possible for incorrect values to appear. Refer to information at About Latest Weather Observations and please check the disclaimer before using these data.